Time;durP1;ratioP1;P1;durP2;ratioP2;P2;SDS_P1;SDS_P2;PMS_P1;PMS_P2;Temp;Humidity;BMP_temperature;BMP_pressure;BME280_temperature;BME280_humidity;BME280_pressure;Samples;Min_cycle;Max_cycle;Signal;HPM_P1;HPM_P2
2022/09/25 00:01:35;;;;;;;2.10;1.80;;;;;;;8.06;72.93;100127.86;1694047;84;20968;-71
2022/09/25 00:04:03;;;;;;;3.70;1.95;;;;;;;8.06;72.92;100121.28;1709434;83;21946;-71
2022/09/25 00:06:31;;;;;;;3.42;2.22;;;;;;;8.08;72.93;100126.42;1705606;83;21528;-71
2022/09/25 00:09:00;;;;;;;4.35;2.15;;;;;;;8.06;72.98;100125.70;1666222;86;21009;-71
2022/09/25 00:11:31;;;;;;;7.95;2.20;;;;;;;8.03;73.00;100130.72;1654261;85;21043;-71
2022/09/25 00:13:59;;;;;;;5.05;1.80;;;;;;;8.02;73.04;100135.63;1645500;87;21052;-71
2022/09/25 00:16:29;;;;;;;3.15;1.82;;;;;;;8.01;73.05;100127.38;1645430;86;21889;-71
2022/09/25 00:21:51;;;;;;;2.40;2.05;;;;;;;7.97;73.14;100126.73;1667792;84;20973;-71
2022/09/25 00:24:19;;;;;;;2.62;1.80;;;;;;;7.94;73.20;100125.66;1656357;85;21036;-71
2022/09/25 00:26:46;;;;;;;2.90;2.37;;;;;;;7.92;73.23;100120.14;1647418;85;21142;-71
2022/09/25 00:29:16;;;;;;;2.65;1.95;;;;;;;7.91;73.25;100123.25;1647460;87;21946;-71
2022/09/25 00:31:43;;;;;;;3.92;2.10;;;;;;;7.93;73.23;100132.34;1647811;85;21028;-71
2022/09/25 00:34:10;;;;;;;2.52;2.00;;;;;;;7.91;73.25;100128.95;1647567;87;21012;-71
2022/09/25 00:36:37;;;;;;;3.15;1.90;;;;;;;7.87;73.32;100130.98;1647463;87;21019;-71
2022/09/25 00:39:03;;;;;;;3.67;2.10;;;;;;;7.87;73.35;100127.52;1662011;84;20964;-72
2022/09/25 00:41:30;;;;;;;3.75;1.90;;;;;;;7.85;73.37;100124.16;1654304;85;21961;-71
2022/09/25 00:43:59;;;;;;;3.05;2.17;;;;;;;7.83;73.47;100128.22;1647407;87;21031;-71
2022/09/25 00:46:43;;;;;;;6.40;2.05;;;;;;;7.79;73.57;100130.69;1647838;87;21036;-71
2022/09/25 00:49:17;;;;;;;3.15;2.00;;;;;;;7.78;73.67;100129.01;1647620;86;21731;-71
2022/09/25 00:52:02;;;;;;;3.80;2.35;;;;;;;7.78;73.67;100136.06;1622641;87;21087;-71
2022/09/25 00:54:32;;;;;;;3.47;2.35;;;;;;;7.77;73.72;100147.53;1656417;86;21964;-71
2022/09/25 00:57:01;;;;;;;2.75;2.00;;;;;;;7.74;73.76;100138.92;1657476;85;21017;-71
2022/09/25 00:59:33;;;;;;;3.35;2.10;;;;;;;7.71;73.83;100136.48;1654699;86;21015;-71
2022/09/25 01:01:59;;;;;;;2.95;2.10;;;;;;;7.71;73.88;100142.22;1652816;85;21085;-71
2022/09/25 01:04:27;;;;;;;3.42;2.35;;;;;;;7.71;73.94;100140.91;1651107;86;21075;-71
2022/09/25 01:06:54;;;;;;;3.77;1.95;;;;;;;7.69;73.98;100138.39;1639861;86;21794;-71
2022/09/25 01:09:21;;;;;;;3.15;2.35;;;;;;;7.67;74.04;100136.83;1639471;86;21016;-71
2022/09/25 01:11:47;;;;;;;3.65;2.30;;;;;;;7.64;74.09;100138.38;1658825;85;21000;-71
2022/09/25 01:14:16;;;;;;;2.17;1.92;;;;;;;7.63;74.16;100135.37;1664889;84;20991;-71
2022/09/25 01:16:57;;;;;;;5.30;2.00;;;;;;;7.63;74.21;100141.95;1643385;87;21501;-71
2022/09/25 01:19:57;;;;;;;2.45;2.02;;;;;;;7.63;74.22;100140.64;1654925;86;22618;-72
2022/09/25 01:23:03;;;;;;;4.08;2.20;;;;;;;7.61;74.26;100138.09;1646460;83;21017;-71
2022/09/25 01:25:58;;;;;;;3.40;2.17;;;;;;;7.62;74.29;100138.92;1695847;84;20994;-71
2022/09/25 01:28:37;;;;;;;;;;;;;;;7.61;74.31;100149.08;1706403;83;20974;-71
2022/09/25 01:31:10;;;;;;;3.50;2.20;;;;;;;7.59;74.33;100147.88;1694459;84;20175;-72
2022/09/25 01:33:42;;;;;;;3.12;2.20;;;;;;;7.58;74.37;100149.30;1653650;86;22142;-72
2022/09/25 01:36:28;;;;;;;3.02;2.10;;;;;;;7.59;74.39;100152.30;1643434;86;21017;-71
2022/09/25 01:39:19;;;;;;;3.20;2.35;;;;;;;7.60;74.39;100150.03;1662181;86;20983;-72
2022/09/25 01:41:59;;;;;;;2.85;2.20;;;;;;;7.60;74.38;100144.77;1649571;87;21444;-72
2022/09/25 01:44:32;;;;;;;4.08;2.17;;;;;;;7.60;74.33;100147.41;1643404;86;21103;-72
2022/09/25 01:47:10;;;;;;;3.83;2.15;;;;;;;7.59;74.30;100143.09;1662084;86;22459;-71
2022/09/25 01:49:43;;;;;;;4.70;2.30;;;;;;;7.58;74.25;100136.16;1647570;85;20924;-71
2022/09/25 01:52:16;;;;;;;2.30;1.85;;;;;;;7.59;74.24;100143.09;1655764;85;21019;-72
2022/09/25 01:54:46;;;;;;;3.55;2.45;;;;;;;7.59;74.19;100150.98;1660841;86;20976;-72
2022/09/25 01:57:20;;;;;;;2.55;2.00;;;;;;;7.58;74.12;100145.36;1677232;85;20952;-72
2022/09/25 02:00:08;;;;;;;5.08;2.12;;;;;;;7.57;74.10;100151.57;1687507;85;21574;-71
2022/09/25 02:02:56;;;;;;;2.90;2.17;;;;;;;7.56;74.07;100149.89;1687312;83;21149;-72
2022/09/25 02:05:34;;;;;;;6.58;2.37;;;;;;;7.52;74.09;100160.23;1680245;84;20982;-71
2022/09/25 02:08:02;;;;;;;5.78;2.40;;;;;;;7.51;74.07;100159.88;1653651;85;21031;-71
2022/09/25 02:10:37;;;;;;;3.55;2.20;;;;;;;7.49;74.04;100155.20;1647894;87;21015;-71
2022/09/25 02:13:12;;;;;;;2.60;2.20;;;;;;;7.47;74.05;100163.20;1671613;85;22544;-72
2022/09/25 02:15:51;;;;;;;3.92;2.22;;;;;;;7.42;74.07;100155.63;1687216;85;21562;-72
2022/09/25 02:21:30;;;;;;;3.75;2.30;;;;;;;7.39;74.11;100154.53;1687260;84;20990;-71
2022/09/25 02:24:17;;;;;;;2.83;2.37;;;;;;;7.38;74.16;100162.05;1663039;84;21022;-71
2022/09/25 02:26:44;;;;;;;2.95;2.37;;;;;;;7.37;74.15;100155.59;1685145;85;21871;-71
2022/09/25 02:29:11;;;;;;;3.30;2.12;;;;;;;7.35;74.17;100158.34;1685828;85;20960;-71
2022/09/25 02:31:56;;;;;;;2.37;2.10;;;;;;;7.32;74.17;100149.80;1687248;84;21510;-72
2022/09/25 02:34:23;;;;;;;3.25;2.37;;;;;;;7.30;74.19;100150.39;1687238;85;20972;-72
2022/09/25 02:36:49;;;;;;;3.87;2.20;;;;;;;7.26;74.26;100157.66;1687349;84;21038;-72
2022/09/25 02:39:18;;;;;;;3.30;2.50;;;;;;;7.23;74.42;100156.53;1681819;84;22835;-72
2022/09/25 02:42:15;;;;;;;2.75;2.35;;;;;;;7.24;74.53;100163.50;1659470;86;21414;-72
2022/09/25 02:45:05;;;;;;;2.92;2.50;;;;;;;7.23;74.63;100159.16;1678644;84;20971;-72
2022/09/25 02:47:54;;;;;;;2.83;2.40;;;;;;;7.23;74.71;100156.53;1678373;85;21416;-72
2022/09/25 02:50:39;;;;;;;2.50;2.17;;;;;;;7.23;74.72;100153.91;1674768;85;21004;-72
2022/09/25 02:53:19;;;;;;;4.00;2.50;;;;;;;7.22;74.74;100154.86;1689901;84;22504;-72
2022/09/25 02:55:59;;;;;;;3.42;2.60;;;;;;;7.21;74.86;100158.43;1676413;85;21063;-72
2022/09/25 02:58:47;;;;;;;3.80;2.62;;;;;;;7.22;74.91;100156.16;1647985;87;21070;-72
2022/09/25 03:01:16;;;;;;;3.20;2.60;;;;;;;7.23;74.98;100154.38;1669890;85;21140;-72
2022/09/25 03:03:44;;;;;;;3.20;2.50;;;;;;;7.24;75.01;100162.63;1682295;85;20956;-72
2022/09/25 03:06:10;;;;;;;2.77;2.37;;;;;;;7.24;75.06;100159.55;1682269;85;21942;-72
2022/09/25 03:08:44;;;;;;;3.92;2.83;;;;;;;7.25;75.07;100164.33;1682178;84;21086;-72
2022/09/25 03:11:30;;;;;;;3.43;2.37;;;;;;;7.25;75.07;100166.48;1689543;84;20963;-72
2022/09/25 03:14:00;;;;;;;3.50;2.67;;;;;;;7.24;75.08;100163.50;1690062;83;21017;-72
2022/09/25 03:16:50;;;;;;;3.95;2.50;;;;;;;7.24;75.12;100167.88;1682984;85;21025;-72
2022/09/25 03:19:18;;;;;;;3.40;2.55;;;;;;;7.22;75.14;100169.30;1690136;82;22289;-72
2022/09/25 03:21:46;;;;;;;4.03;2.90;;;;;;;7.18;75.22;100170.00;1696926;83;21063;-72
2022/09/25 03:24:14;;;;;;;5.85;2.75;;;;;;;7.20;75.26;100168.57;1711663;83;20969;-72
2022/09/25 03:26:41;;;;;;;4.95;2.50;;;;;;;7.20;75.27;100168.57;1711530;83;20964;-72
2022/09/25 03:29:08;;;;;;;3.15;2.50;;;;;;;7.20;75.29;100176.45;1711611;83;21009;-72
2022/09/25 03:31:35;;;;;;;3.12;2.42;;;;;;;7.20;75.31;100175.61;1710589;83;21888;-72
2022/09/25 03:34:02;;;;;;;3.45;2.72;;;;;;;7.22;75.34;100182.91;1711463;83;21297;-72
2022/09/25 03:36:30;;;;;;;5.15;3.00;;;;;;;7.20;75.39;100180.39;1714528;82;21075;-72
2022/09/25 03:38:58;;;;;;;4.78;2.65;;;;;;;7.22;75.37;100185.53;1741398;82;20977;-72
2022/09/25 03:41:27;;;;;;;5.10;2.60;;;;;;;7.21;75.36;100175.50;1741078;82;20957;-72
2022/09/25 03:43:55;;;;;;;4.28;2.77;;;;;;;7.22;75.38;100183.75;1724646;82;21922;-72
2022/09/25 03:46:30;;;;;;;5.62;2.75;;;;;;;7.23;75.38;100185.91;1741063;82;20935;-72
2022/09/25 03:48:57;;;;;;;3.60;2.75;;;;;;;7.21;75.38;100183.38;1688056;82;21618;-72
2022/09/25 03:51:25;;;;;;;4.47;2.72;;;;;;;7.24;75.41;100192.83;1723714;82;20957;-72
2022/09/25 03:53:52;;;;;;;3.45;2.58;;;;;;;7.23;75.44;100188.05;1716861;82;21000;-72
2022/09/25 03:56:22;;;;;;;5.33;2.70;;;;;;;7.24;75.43;100181.88;1711528;83;21927;-72
2022/09/25 03:58:53;;;;;;;3.72;2.67;;;;;;;7.25;75.42;100191.44;1695588;83;20992;-72
2022/09/25 04:01:20;;;;;;;3.25;2.75;;;;;;;7.26;75.42;100190.97;1711416;83;21130;-72
2022/09/25 04:03:47;;;;;;;4.10;2.87;;;;;;;7.25;75.43;100198.01;1710964;83;20993;-72
2022/09/25 04:06:19;;;;;;;4.45;2.60;;;;;;;7.25;75.46;100198.48;1682948;85;21020;-72
2022/09/25 04:08:47;;;;;;;3.37;2.80;;;;;;;7.25;75.47;100195.38;1696766;82;21503;-72
2022/09/25 04:11:16;;;;;;;4.37;3.02;;;;;;;7.26;75.53;100195.75;1723607;82;20864;-72
2022/09/25 04:13:50;;;;;;;4.83;2.60;;;;;;;7.26;75.59;100202.31;1688616;82;21055;-72
2022/09/25 04:16:19;;;;;;;5.15;2.20;;;;;;;7.28;75.57;100201.73;1686473;84;21122;-72
2022/09/25 04:18:46;;;;;;;4.40;2.58;;;;;;;7.29;75.56;100199.47;1686527;84;21082;-71
2022/09/25 04:21:13;;;;;;;3.27;2.60;;;;;;;7.33;75.55;100201.40;1686391;84;21928;-72
2022/09/25 04:23:40;;;;;;;3.98;3.10;;;;;;;7.34;75.57;100201.32;1680421;85;20986;-72
2022/09/25 04:26:06;;;;;;;4.87;2.90;;;;;;;7.38;75.59;100208.51;1649242;85;21065;-73
2022/09/25 04:28:33;;;;;;;3.90;2.87;;;;;;;7.39;75.60;100209.71;1683986;82;21039;-72
2022/09/25 04:31:01;;;;;;;3.90;3.05;;;;;;;7.41;75.62;100205.19;1683724;85;21000;-72
2022/09/25 04:33:46;;;;;;;4.80;3.15;;;;;;;7.44;75.66;100208.09;1696139;84;21940;-72
2022/09/25 04:36:14;;;;;;;4.12;3.00;;;;;;;7.49;75.65;100205.98;1683700;84;20948;-72
2022/09/25 04:38:41;;;;;;;3.58;2.70;;;;;;;7.53;75.64;100196.08;1686116;83;20965;-72
2022/09/25 04:41:07;;;;;;;3.95;3.05;;;;;;;7.58;75.62;100196.61;1692131;83;21012;-72
2022/09/25 04:43:34;;;;;;;3.98;2.90;;;;;;;7.63;75.54;100196.67;1692456;84;21005;-72
2022/09/25 04:46:05;;;;;;;4.47;2.83;;;;;;;7.67;75.43;100197.28;1691947;83;22653;-73
2022/09/25 04:48:33;;;;;;;3.47;2.92;;;;;;;7.73;75.35;100200.81;1715428;83;21355;-72
2022/09/25 04:50:59;;;;;;;5.30;2.87;;;;;;;7.81;75.25;100201.56;1715250;83;21009;-72
2022/09/25 04:53:28;;;;;;;3.70;2.90;;;;;;;7.85;75.09;100209.14;1693246;83;21060;-72
2022/09/25 04:56:06;;;;;;;3.75;2.92;;;;;;;7.89;75.00;100204.02;1676058;84;21006;-72
2022/09/25 04:58:34;;;;;;;3.75;2.80;;;;;;;7.95;74.81;100213.27;1659948;85;21953;-72
2022/09/25 05:01:04;;;;;;;3.37;2.60;;;;;;;8.00;74.64;100212.45;1658977;86;21064;-72
2022/09/25 05:03:31;;;;;;;2.92;2.62;;;;;;;8.07;74.53;100211.55;1662019;84;20975;-72
2022/09/25 05:05:58;;;;;;;3.65;2.90;;;;;;;8.15;74.30;100213.16;1686582;84;21003;-72
2022/09/25 05:08:26;;;;;;;3.47;2.80;;;;;;;8.20;74.14;100211.90;1686583;85;21422;-73
2022/09/25 05:10:54;;;;;;;4.60;2.52;;;;;;;8.27;74.02;100209.16;1686573;85;21954;-72
2022/09/25 05:13:20;;;;;;;3.35;2.75;;;;;;;8.36;73.91;100218.70;1686413;84;20996;-72
2022/09/25 05:15:48;;;;;;;3.77;2.75;;;;;;;8.42;73.81;100217.78;1711398;83;21008;-72
2022/09/25 05:18:17;;;;;;;5.05;2.80;;;;;;;8.50;73.70;100220.70;1711276;83;21000;-73
2022/09/25 05:20:45;;;;;;;3.33;2.70;;;;;;;8.58;73.44;100217.00;1711307;83;21529;-72
2022/09/25 05:23:12;;;;;;;2.80;2.40;;;;;;;8.64;73.12;100226.25;1702811;82;21741;-72
2022/09/25 05:25:38;;;;;;;2.98;2.40;;;;;;;8.72;72.65;100222.59;1740877;82;20992;-72
2022/09/25 05:28:04;;;;;;;4.33;2.90;;;;;;;8.81;72.40;100228.97;1741229;82;21416;-72
2022/09/25 05:30:33;;;;;;;4.30;2.67;;;;;;;8.88;72.19;100224.45;1677931;83;21413;-72
2022/09/25 05:33:00;;;;;;;3.30;2.58;;;;;;;8.96;72.04;100229.12;1634439;85;21081;-72
2022/09/25 05:35:29;;;;;;;4.35;2.60;;;;;;;9.02;71.66;100222.09;1682874;85;21867;-72
2022/09/25 05:37:55;;;;;;;6.78;2.70;;;;;;;9.10;71.45;100225.47;1663037;86;20966;-72
2022/09/25 05:40:22;;;;;;;3.05;2.50;;;;;;;9.18;71.12;100221.30;1682870;85;21025;-72
2022/09/25 05:42:50;;;;;;;3.47;2.50;;;;;;;9.26;71.10;100221.17;1701879;83;21000;-72
2022/09/25 05:45:18;;;;;;;4.80;2.77;;;;;;;9.36;70.87;100224.78;1721080;82;21055;-72
2022/09/25 05:47:46;;;;;;;3.62;2.37;;;;;;;9.46;70.58;100224.46;1673607;83;22586;-72
2022/09/25 05:50:14;;;;;;;3.12;2.30;;;;;;;9.55;70.41;100218.45;1664576;86;20951;-72
2022/09/25 05:52:41;;;;;;;2.98;2.30;;;;;;;9.66;70.00;100230.34;1673820;83;20983;-72
2022/09/25 05:55:08;;;;;;;3.80;2.37;;;;;;;9.73;69.22;100224.92;1691004;84;21068;-71
2022/09/25 05:57:35;;;;;;;3.10;2.17;;;;;;;9.82;69.20;100226.49;1681311;85;20972;-72
2022/09/25 06:00:04;;;;;;;3.30;2.33;;;;;;;9.90;69.13;100235.48;1690913;84;22353;-72
2022/09/25 06:02:33;;;;;;;2.35;1.90;;;;;;;9.99;68.74;100233.92;1709387;83;20988;-72
2022/09/25 06:04:59;;;;;;;3.77;2.30;;;;;;;10.10;68.26;100244.94;1688744;82;21091;-72
2022/09/25 06:07:26;;;;;;;3.17;2.40;;;;;;;10.15;67.41;100238.83;1681417;84;21001;-72
2022/09/25 06:09:52;;;;;;;4.75;2.35;;;;;;;10.20;67.38;100236.17;1681680;85;20976;-72
2022/09/25 06:12:22;;;;;;;2.75;2.25;;;;;;;10.29;67.26;100227.55;1681296;84;21459;-73
2022/09/25 06:14:51;;;;;;;2.90;2.10;;;;;;;10.39;66.90;100233.41;1687095;82;21141;-73
2022/09/25 06:17:18;;;;;;;5.80;2.30;;;;;;;10.45;66.88;100228.48;1696809;84;21446;-72
2022/09/25 06:19:45;;;;;;;3.72;1.80;;;;;;;10.56;66.54;100224.47;1697031;83;21399;-73
2022/09/25 06:22:13;;;;;;;3.35;2.30;;;;;;;10.69;66.01;100236.19;1672905;85;20975;-72
2022/09/25 06:24:41;;;;;;;2.65;2.00;;;;;;;10.80;65.56;100232.17;1686218;85;21801;-72
2022/09/25 06:27:07;;;;;;;2.95;2.30;;;;;;;10.87;65.22;100237.80;1674935;83;21037;-73
2022/09/25 06:29:35;;;;;;;4.53;2.30;;;;;;;10.97;65.04;100231.27;1679335;85;21027;-72
2022/09/25 06:32:02;;;;;;;3.47;2.20;;;;;;;11.05;64.89;100219.58;1711848;83;21123;-72
2022/09/25 06:34:29;;;;;;;5.35;2.75;;;;;;;11.14;64.66;100220.97;1711613;83;21016;-72
2022/09/25 06:36:56;;;;;;;6.15;2.20;;;;;;;11.26;64.21;100230.98;1709889;83;21893;-72
2022/09/25 06:39:22;;;;;;;3.50;2.20;;;;;;;11.36;63.66;100226.59;1682974;85;20937;-73
2022/09/25 06:41:52;;;;;;;4.50;2.30;;;;;;;11.42;63.29;100223.43;1682922;85;21204;-73
2022/09/25 06:44:21;;;;;;;3.15;2.10;;;;;;;11.49;63.00;100221.59;1683332;85;21467;-72
2022/09/25 06:46:53;;;;;;;2.20;1.70;;;;;;;11.57;62.65;100231.02;1682997;85;21097;-73
2022/09/25 06:49:20;;;;;;;3.08;1.80;;;;;;;11.68;62.38;100237.56;1683049;85;22342;-71
2022/09/25 06:51:47;;;;;;;2.17;1.95;;;;;;;11.75;61.82;100224.14;1683293;83;21086;-73
2022/09/25 06:54:13;;;;;;;2.55;2.00;;;;;;;11.83;62.03;100230.96;1704409;83;20970;-72
2022/09/25 06:56:49;;;;;;;3.47;1.85;;;;;;;11.89;61.18;100229.61;1683018;85;21081;-72
2022/09/25 06:59:16;;;;;;;2.12;1.80;;;;;;;11.96;61.19;100224.10;1684555;82;21464;-73
2022/09/25 07:01:42;;;;;;;1.92;1.57;;;;;;;12.03;60.79;100232.70;1679378;85;21908;-72
2022/09/25 07:04:09;;;;;;;2.75;1.70;;;;;;;12.15;60.72;100241.37;1679250;84;20988;-72
2022/09/25 07:06:36;;;;;;;3.12;1.70;;;;;;;12.25;59.73;100235.61;1679210;85;20952;-73
2022/09/25 07:09:02;;;;;;;2.65;1.85;;;;;;;12.29;59.47;100234.39;1679621;85;21024;-73
2022/09/25 07:11:30;;;;;;;4.10;1.72;;;;;;;12.35;59.27;100232.98;1652471;85;21528;-72
2022/09/25 07:13:57;;;;;;;2.47;1.40;;;;;;;12.43;59.01;100238.93;1684907;85;21830;-72
2022/09/25 07:16:26;;;;;;;4.40;1.70;;;;;;;12.51;58.96;100238.59;1687582;84;20998;-73
2022/09/25 07:18:54;;;;;;;2.12;1.57;;;;;;;12.60;58.66;100236.45;1687925;83;20990;-74
2022/09/25 07:21:22;;;;;;;3.60;1.90;;;;;;;12.71;57.86;100243.91;1715585;83;21527;-72
2022/09/25 07:23:50;;;;;;;2.20;1.55;;;;;;;12.80;57.96;100239.11;1716454;83;21035;-72
2022/09/25 07:26:22;;;;;;;2.67;1.62;;;;;;;12.86;57.26;100243.86;1689152;85;21972;-72
2022/09/25 07:29:03;;;;;;;5.55;1.60;;;;;;;12.96;56.98;100245.19;1687140;84;21020;-71
2022/09/25 07:31:32;;;;;;;2.65;1.80;;;;;;;13.02;56.28;100244.12;1688896;84;21012;-72
2022/09/25 07:34:01;;;;;;;3.20;2.00;;;;;;;13.10;56.57;100240.28;1716373;83;21086;-72
2022/09/25 07:36:28;;;;;;;2.37;1.70;;;;;;;13.12;56.96;100243.65;1716538;83;21000;-71
2022/09/25 07:38:55;;;;;;;6.78;1.70;;;;;;;13.25;56.82;100235.91;1716487;83;21970;-72
2022/09/25 07:41:22;;;;;;;2.62;1.80;;;;;;;13.33;56.80;100247.48;1716433;83;21473;-72
2022/09/25 07:43:56;;;;;;;2.02;1.70;;;;;;;13.39;56.43;100244.24;1716403;83;21430;-72
2022/09/25 07:46:26;;;;;;;3.08;2.10;;;;;;;13.44;55.65;100245.98;1715043;82;39478;-73
2022/09/25 07:48:54;;;;;;;1.90;1.57;;;;;;;13.46;55.42;100240.53;1686244;84;20964;-71
2022/09/25 07:51:21;;;;;;;1.75;1.30;;;;;;;13.49;55.01;100245.55;1686285;85;21954;-72
2022/09/25 07:53:48;;;;;;;2.15;1.70;;;;;;;13.56;54.94;100244.48;1703737;83;21016;-72
2022/09/25 07:56:16;;;;;;;3.35;1.50;;;;;;;13.59;54.63;100241.05;1687453;85;20981;-70
2022/09/25 07:58:42;;;;;;;2.10;1.40;;;;;;;13.65;54.96;100236.98;1690746;84;20964;-72
2022/09/25 08:01:11;;;;;;;3.02;1.62;;;;;;;13.71;55.21;100238.59;1689491;85;20976;-72
2022/09/25 08:03:38;;;;;;;2.80;1.70;;;;;;;13.84;55.72;100238.25;1687341;85;21860;-71
2022/09/25 08:06:10;;;;;;;1.72;1.62;;;;;;;13.95;54.72;100238.55;1688860;85;20883;-72
2022/09/25 08:08:37;;;;;;;2.37;1.67;;;;;;;14.00;54.59;100241.61;1716350;83;21087;-72
2022/09/25 08:11:10;;;;;;;2.35;1.70;;;;;;;14.05;54.53;100235.35;1702830;82;20968;-72
2022/09/25 08:13:37;;;;;;;2.37;1.67;;;;;;;14.13;54.87;100246.08;1688221;85;21139;-72
2022/09/25 08:16:05;;;;;;;2.55;1.70;;;;;;;14.15;53.52;100248.09;1682535;82;22605;-72
2022/09/25 08:18:32;;;;;;;3.58;1.75;;;;;;;14.12;52.57;100242.25;1680491;85;20976;-72
2022/09/25 08:21:03;;;;;;;2.12;1.65;;;;;;;14.13;53.19;100246.08;1681458;84;21061;-72
2022/09/25 08:23:31;;;;;;;2.05;1.57;;;;;;;14.20;53.52;100247.17;1680566;85;21029;-73
2022/09/25 08:25:58;;;;;;;1.65;1.20;;;;;;;14.30;52.90;100245.78;1680685;82;21104;-73
2022/09/25 08:28:24;;;;;;;4.33;1.50;;;;;;;14.33;52.63;100252.95;1736387;82;21964;-73
2022/09/25 08:30:51;;;;;;;3.80;1.55;;;;;;;14.38;52.20;100256.97;1738486;82;21036;-72
2022/09/25 08:33:17;;;;;;;1.85;1.50;;;;;;;14.38;52.19;100233.06;1738400;82;21000;-72
2022/09/25 08:35:46;;;;;;;2.42;1.50;;;;;;;14.40;52.30;100231.11;1737795;82;20973;-72
2022/09/25 08:38:13;;;;;;;5.97;1.60;;;;;;;14.48;53.07;100246.69;1685886;83;21009;-72
2022/09/25 08:40:45;;;;;;;2.75;1.52;;;;;;;14.62;52.36;100233.85;1680443;85;21932;-72
2022/09/25 08:43:16;;;;;;;4.40;1.75;;;;;;;14.65;51.93;100229.06;1680511;85;21004;-72
2022/09/25 08:51:20;;;;;;;1.70;1.40;;;;;;;14.78;51.79;100235.34;1686718;85;21533;-72
2022/09/25 08:53:46;;;;;;;3.10;1.40;;;;;;;14.79;51.00;100224.55;1699729;82;21773;-72
2022/09/25 08:56:18;;;;;;;1.87;1.65;;;;;;;14.86;50.42;100216.78;1709005;84;20956;-72
2022/09/25 08:59:12;;;;;;;2.07;1.40;;;;;;;14.96;50.54;100222.02;1709201;84;21032;-72
2022/09/25 09:01:48;;;;;;;1.82;1.50;;;;;;;15.09;50.19;100225.13;1709166;83;21159;-72
2022/09/25 09:04:20;;;;;;;3.05;1.67;;;;;;;15.26;50.21;100214.13;1707478;83;20961;-72
2022/09/25 09:06:52;;;;;;;2.02;1.35;;;;;;;15.43;49.52;100207.89;1684067;85;21844;-72
2022/09/25 09:09:42;;;;;;;2.33;1.30;;;;;;;15.57;49.51;100218.48;1689243;85;21020;-72
2022/09/25 09:12:16;;;;;;;2.45;1.52;;;;;;;15.70;48.45;100210.91;1683995;83;21008;-72
2022/09/25 09:14:47;;;;;;;3.12;2.75;;;;;;;15.82;47.38;100193.66;1706524;83;21065;-72
2022/09/25 09:17:24;;;;;;;3.40;2.20;;;;;;;15.96;47.32;100205.05;1700676;84;20957;-72
2022/09/25 09:20:05;;;;;;;1.70;1.60;;;;;;;16.09;46.93;100215.74;1671416;85;21907;-72
2022/09/25 09:22:38;;;;;;;2.35;1.57;;;;;;;16.15;45.43;100209.28;1670357;85;20965;-72
2022/09/25 09:25:11;;;;;;;2.58;1.25;;;;;;;16.21;46.23;100199.78;1672540;85;21367;-72
2022/09/25 09:28:05;;;;;;;1.70;1.40;;;;;;;16.38;46.77;100187.34;1672021;84;21510;-72
2022/09/25 09:30:37;;;;;;;2.45;1.45;;;;;;;16.57;46.36;100189.20;1677835;84;21453;-72
2022/09/25 09:33:40;;;;;;;1.70;1.27;;;;;;;16.72;45.92;100184.59;1653045;85;21828;-72
2022/09/25 09:36:22;;;;;;;1.40;1.20;;;;;;;16.81;45.20;100198.27;1686342;85;21091;-72
2022/09/25 09:39:17;;;;;;;1.15;1.05;;;;;;;16.85;44.11;100195.59;1686251;85;21000;-72
2022/09/25 09:42:00;;;;;;;1.42;1.20;;;;;;;16.69;44.19;100187.07;1686443;84;21370;-72
2022/09/25 09:44:57;;;;;;;1.47;1.20;;;;;;;16.51;45.12;100184.55;1675832;84;21575;-72
2022/09/25 09:47:57;;;;;;;1.65;1.15;;;;;;;16.64;45.73;100189.89;1649604;87;21998;-72
2022/09/25 09:50:45;;;;;;;1.00;0.90;;;;;;;16.91;44.30;100186.10;1695156;83;20943;-73
2022/09/25 09:53:41;;;;;;;2.05;1.15;;;;;;;17.10;43.87;100189.77;1689571;84;21391;-72
2022/09/25 09:56:13;;;;;;;2.10;1.22;;;;;;;17.12;43.60;100186.41;1690309;85;21470;-71
2022/09/25 09:58:54;;;;;;;2.62;1.40;;;;;;;17.05;43.19;100191.58;1690304;84;21024;-72
2022/09/25 10:01:25;;;;;;;1.35;1.20;;;;;;;17.06;42.95;100186.58;1679025;85;21892;-72
2022/09/25 10:04:08;;;;;;;1.57;1.00;;;;;;;17.23;43.18;100191.91;1655165;84;21491;-72
2022/09/25 10:06:40;;;;;;;;;;;;;;;17.30;42.50;100187.56;1647536;86;20992;-72
2022/09/25 10:09:13;;;;;;;2.35;1.22;;;;;;;17.35;43.11;100186.53;1654816;86;20146;-72
2022/09/25 10:11:44;;;;;;;2.25;1.20;;;;;;;17.47;41.88;100181.19;1654868;86;21427;-72
2022/09/25 10:14:19;;;;;;;1.87;1.17;;;;;;;17.51;42.38;100183.00;1655414;85;21946;-72
2022/09/25 10:16:44;;;;;;;1.52;1.20;;;;;;;17.46;41.78;100194.18;1679364;83;21076;-72
2022/09/25 10:19:24;;;;;;;2.75;1.20;;;;;;;17.42;42.42;100178.18;1716649;83;21020;-72
2022/09/25 10:22:04;;;;;;;1.52;1.10;;;;;;;17.54;41.35;100190.16;1724946;83;21011;-71
2022/09/25 10:24:57;;;;;;;3.25;1.30;;;;;;;17.73;41.46;100184.45;1724973;83;21020;-73
2022/09/25 10:27:47;;;;;;;2.47;1.37;;;;;;;17.89;41.15;100177.39;1725356;83;21888;-72
2022/09/25 10:30:19;;;;;;;2.25;1.60;;;;;;;18.02;40.76;100171.80;1725200;83;20996;-72
2022/09/25 10:33:05;;;;;;;3.12;1.77;;;;;;;18.09;40.41;100169.27;1725011;83;21064;-72
2022/09/25 10:35:42;;;;;;;3.47;1.40;;;;;;;18.05;40.62;100166.64;1705891;83;20998;-72
2022/09/25 10:38:46;;;;;;;1.85;1.35;;;;;;;18.10;40.69;100180.29;1667983;86;21520;-72
2022/09/25 10:41:17;;;;;;;2.30;1.82;;;;;;;18.14;40.35;100167.39;1642836;85;22505;-72
2022/09/25 10:43:55;;;;;;;1.95;1.50;;;;;;;18.06;40.13;100161.61;1670578;83;20996;-72
2022/09/25 10:52:14;;;;;;;2.20;1.10;;;;;;;17.71;40.80;100166.94;1640138;83;21049;-71
2022/09/25 10:54:41;;;;;;;1.75;1.20;;;;;;;17.72;41.24;100169.44;1711296;83;21892;-71
2022/09/25 10:57:34;;;;;;;1.50;0.93;;;;;;;17.86;41.70;100163.89;1691025;84;21022;-71
2022/09/25 11:00:02;;;;;;;1.70;1.22;;;;;;;18.03;41.45;100166.78;1723341;82;21012;-71
2022/09/25 11:02:40;;;;;;;1.77;1.67;;;;;;;18.28;40.54;100171.50;1740756;82;21040;-72
2022/09/25 11:05:14;;;;;;;1.80;1.15;;;;;;;18.53;40.91;100170.02;1740871;82;21071;-72
2022/09/25 11:07:54;;;;;;;1.40;1.30;;;;;;;18.72;39.48;100156.66;1713767;82;22579;-72
2022/09/25 11:10:24;;;;;;;1.65;1.17;;;;;;;18.82;40.13;100153.27;1678228;83;21054;-73
2022/09/25 11:12:51;;;;;;;2.60;2.00;;;;;;;18.87;38.49;100147.68;1681473;83;21006;-73
2022/09/25 11:15:20;;;;;;;3.22;2.05;;;;;;;18.93;39.77;100159.52;1665104;85;21079;-73
2022/09/25 11:17:50;;;;;;;3.58;1.95;;;;;;;19.03;38.68;100154.73;1674485;83;21836;-73
2022/09/25 11:20:29;;;;;;;3.22;1.62;;;;;;;19.04;38.11;100155.57;1710671;82;21902;-72
2022/09/25 11:23:34;;;;;;;5.10;2.85;;;;;;;19.04;38.87;100146.20;1665505;84;20967;-72
2022/09/25 11:26:15;;;;;;;2.75;2.08;;;;;;;18.97;39.06;100149.27;1713702;83;21683;-72
2022/09/25 11:29:08;;;;;;;2.12;1.67;;;;;;;18.81;39.32;100151.58;1696906;82;20978;-72
2022/09/25 11:31:58;;;;;;;2.73;1.73;;;;;;;18.65;39.64;100145.87;1701920;83;21011;-72
2022/09/25 11:34:55;;;;;;;2.10;1.52;;;;;;;18.41;39.95;100146.01;1701462;84;22594;-72
2022/09/25 11:37:51;;;;;;;3.10;1.30;;;;;;;18.13;40.31;100147.85;1701691;84;21039;-72
2022/09/25 11:41:13;;;;;;;1.10;1.00;;;;;;;17.94;40.69;100149.63;1673466;84;21018;-71
2022/09/25 11:44:18;;;;;;;3.22;1.40;;;;;;;17.77;41.20;100144.06;1696586;83;21017;-72
2022/09/25 11:47:15;;;;;;;4.10;2.50;;;;;;;17.64;41.95;100155.24;1688104;85;21033;-71
2022/09/25 11:49:42;;;;;;;6.75;5.70;;;;;;;17.57;41.19;100147.61;1687812;85;21973;-72
2022/09/25 11:52:35;;;;;;;2.27;1.40;;;;;;;17.63;41.47;100146.40;1705869;82;21011;-72
2022/09/25 11:55:33;;;;;;;1.37;1.10;;;;;;;17.87;41.10;100143.34;1683989;83;21088;-72
2022/09/25 11:58:25;;;;;;;1.22;1.10;;;;;;;18.31;40.58;100136.88;1691870;82;21035;-73
2022/09/25 12:01:24;;;;;;;2.08;1.20;;;;;;;18.60;39.38;100130.82;1664055;84;21006;-73
2022/09/25 12:04:06;;;;;;;1.30;1.00;;;;;;;18.60;39.34;100134.83;1687696;84;21931;-73
2022/09/25 12:06:43;;;;;;;1.65;1.20;;;;;;;18.45;38.99;100131.29;1687495;85;21005;-73
2022/09/25 12:09:25;;;;;;;1.37;1.17;;;;;;;18.34;39.40;100125.03;1687941;85;21433;-73
2022/09/25 12:12:09;;;;;;;1.70;1.00;;;;;;;18.25;40.73;100131.76;1661200;86;21025;-73
2022/09/25 12:14:47;;;;;;;1.47;1.17;;;;;;;18.19;39.49;100129.78;1687572;85;20975;-72
2022/09/25 12:17:33;;;;;;;8.58;5.12;;;;;;;18.03;39.53;100130.70;1658950;85;21063;-73